createdAt,value
2019-02-07T00:00:21.873Z,30.01
2019-02-07T00:03:25.479Z,30.00
2019-02-07T00:06:29.093Z,30.01
2019-02-07T00:09:32.783Z,30.00
2019-02-07T00:12:36.391Z,29.99
2019-02-07T00:15:39.972Z,29.98
2019-02-07T00:18:44.571Z,29.98
2019-02-07T00:21:48.124Z,29.97
2019-02-07T00:24:51.721Z,29.98
2019-02-07T00:27:55.437Z,29.96
2019-02-07T00:30:59.033Z,29.96
2019-02-07T00:34:03.395Z,29.94
2019-02-07T00:37:06.951Z,29.95
2019-02-07T00:40:12.566Z,29.93
2019-02-07T00:43:17.245Z,29.93
2019-02-07T00:46:20.862Z,29.93
2019-02-07T00:49:24.443Z,29.93
2019-02-07T00:52:28.020Z,29.93
2019-02-07T00:55:31.647Z,29.92
2019-02-07T00:58:35.356Z,29.93
2019-02-07T01:01:39.449Z,29.94
2019-02-07T01:04:43.058Z,29.94
2019-02-07T01:07:46.652Z,29.93
2019-02-07T01:10:50.841Z,29.93
2019-02-07T01:13:54.409Z,29.95
2019-02-07T01:16:57.997Z,29.91
2019-02-07T01:20:02.958Z,29.92
2019-02-07T01:23:06.517Z,29.92
2019-02-07T01:26:10.142Z,29.93
2019-02-07T01:29:13.848Z,29.91
2019-02-07T01:32:17.435Z,29.92
2019-02-07T01:35:23.115Z,29.92
2019-02-07T01:38:28.218Z,29.92
2019-02-07T01:41:31.835Z,29.89
2019-02-07T01:44:35.459Z,29.91
2019-02-07T01:47:39.535Z,29.89
2019-02-07T01:50:44.282Z,29.91
2019-02-07T01:53:47.876Z,29.91
2019-02-07T01:56:51.871Z,29.91
2019-02-07T01:59:55.584Z,29.91
2019-02-07T02:02:59.301Z,29.89
2019-02-07T02:06:03.207Z,29.90
2019-02-07T02:09:08.147Z,29.90
2019-02-07T02:12:11.829Z,29.91
2019-02-07T02:15:24.112Z,29.90
2019-02-07T02:18:24.391Z,29.92
2019-02-07T02:21:28.055Z,29.90
2019-02-07T02:24:31.801Z,29.89
2019-02-07T02:27:35.400Z,29.89
2019-02-07T02:30:38.988Z,29.89
2019-02-07T02:33:42.721Z,29.87
2019-02-07T02:36:46.297Z,29.83
2019-02-07T02:39:49.913Z,29.87
2019-02-07T02:42:53.612Z,29.87
2019-02-07T02:45:57.315Z,29.86
2019-02-07T02:49:00.931Z,29.87
2019-02-07T02:52:04.793Z,29.86
2019-02-07T02:55:09.623Z,29.88
2019-02-07T02:58:13.271Z,29.86
2019-02-07T03:01:42.590Z,29.85
2019-02-07T03:04:53.803Z,29.87
2019-02-07T03:08:15.357Z,29.86
2019-02-07T03:11:36.807Z,29.86
2019-02-07T03:14:58.423Z,29.84
2019-02-07T03:18:18.248Z,29.83
2019-02-07T03:21:39.721Z,29.84
2019-02-07T03:25:01.306Z,29.83
2019-02-07T03:28:24.760Z,29.84
2019-02-07T03:31:47.456Z,29.83
2019-02-07T03:35:19.414Z,29.83
2019-02-07T03:38:30.594Z,29.80
2019-02-07T03:42:00.933Z,29.79
2019-02-07T03:45:22.793Z,29.81
2019-02-07T03:48:33.798Z,29.80
2019-02-07T03:51:55.430Z,29.80
2019-02-07T03:55:18.006Z,29.80
2019-02-07T03:58:39.499Z,29.77
2019-02-07T04:01:50.715Z,29.79
2019-02-07T04:05:19.590Z,29.75
2019-02-07T04:08:43.406Z,29.80
2019-02-07T04:12:09.797Z,29.80
2019-02-07T04:15:47.751Z,29.79
2019-02-07T04:19:01.640Z,29.77
2019-02-07T04:22:30.366Z,29.79
2019-02-07T04:26:02.311Z,29.81
2019-02-07T04:29:24.857Z,29.81
2019-02-07T04:32:58.247Z,29.77
2019-02-07T04:36:23.159Z,29.79
2019-02-07T04:39:37.499Z,29.82
2019-02-07T04:42:55.668Z,29.81
2019-02-07T04:46:27.066Z,29.81
2019-02-07T04:49:48.852Z,29.81
2019-02-07T04:53:01.454Z,29.80
2019-02-07T04:56:23.055Z,29.79
2019-02-07T04:59:36.394Z,29.79
2019-02-07T05:02:58.057Z,29.79
2019-02-07T05:06:24.469Z,29.79
2019-02-07T05:09:45.781Z,29.77
2019-02-07T05:13:14.412Z,29.74
2019-02-07T05:16:39.701Z,29.75
2019-02-07T05:20:06.316Z,29.77
2019-02-07T05:23:27.824Z,29.78
2019-02-07T05:26:50.459Z,29.76
2019-02-07T05:30:05.572Z,29.77
2019-02-07T05:33:41.750Z,29.75
2019-02-07T05:37:04.317Z,29.75
2019-02-07T05:40:13.726Z,29.74
2019-02-07T05:43:36.329Z,29.75
2019-02-07T05:47:01.280Z,29.73
2019-02-07T05:50:23.501Z,29.70
2019-02-07T05:53:53.944Z,29.69
2019-02-07T05:57:16.340Z,29.67
2019-02-07T06:00:37.997Z,29.66
2019-02-07T06:03:48.913Z,29.66
2019-02-07T06:07:10.676Z,29.64
2019-02-07T06:10:32.154Z,29.65
2019-02-07T06:13:59.719Z,29.61
2019-02-07T06:17:21.162Z,29.64
2019-02-07T06:20:41.543Z,29.60
2019-02-07T06:24:08.101Z,29.60
2019-02-07T06:27:39.455Z,29.60
2019-02-07T06:31:00.633Z,29.59
2019-02-07T06:34:28.981Z,29.60
2019-02-07T06:37:52.568Z,29.61
2019-02-07T06:41:14.111Z,29.65
2019-02-07T06:44:35.602Z,29.60
2019-02-07T06:48:04.087Z,29.60
2019-02-07T06:51:26.737Z,29.61
2019-02-07T06:54:53.375Z,29.60
2019-02-07T06:58:26.131Z,29.61
2019-02-07T07:01:51.667Z,29.60
2019-02-07T07:05:18.113Z,29.60
2019-02-07T07:08:39.321Z,29.59
2019-02-07T07:12:05.708Z,29.62
2019-02-07T07:15:17.192Z,29.59
2019-02-07T07:18:39.011Z,29.59
2019-02-07T07:22:11.391Z,29.59
2019-02-07T07:25:33.272Z,29.59
2019-02-07T07:28:56.600Z,29.57
2019-02-07T07:32:17.941Z,29.57
2019-02-07T07:35:39.401Z,29.59
2019-02-07T07:39:02.817Z,29.55
2019-02-07T07:42:24.328Z,29.55
2019-02-07T07:45:38.278Z,29.51
2019-02-07T07:49:06.252Z,29.52
2019-02-07T07:52:47.138Z,29.51
2019-02-07T07:56:06.804Z,29.49
2019-02-07T07:59:28.012Z,29.49
2019-02-07T08:02:46.994Z,29.49
2019-02-07T08:05:57.936Z,29.48
2019-02-07T08:09:19.281Z,29.48
2019-02-07T08:12:37.024Z,29.46
2019-02-07T08:15:59.411Z,29.46
2019-02-07T08:19:22.279Z,29.80
2019-02-07T08:22:43.995Z,29.96
2019-02-07T08:26:14.146Z,29.90
2019-02-07T08:29:42.864Z,29.83
2019-02-07T08:33:17.892Z,29.76
2019-02-07T08:36:46.099Z,29.70
2019-02-07T08:40:21.125Z,29.69
2019-02-07T08:43:36.744Z,29.69
2019-02-07T08:46:58.332Z,29.57
2019-02-07T08:50:24.356Z,29.56
2019-02-07T08:53:46.430Z,29.57
2019-02-07T08:57:02.621Z,29.55
2019-02-07T09:00:26.827Z,29.53
2019-02-07T09:03:48.212Z,29.58
2019-02-07T09:07:09.309Z,29.56
2019-02-07T09:10:33.875Z,29.54
2019-02-07T09:13:47.940Z,29.51
2019-02-07T09:17:14.573Z,29.48
2019-02-07T09:20:35.982Z,29.47
2019-02-07T09:23:51.559Z,29.53
2019-02-07T09:27:23.057Z,29.49
2019-02-07T09:31:01.607Z,29.52
2019-02-07T09:34:29.668Z,29.49
2019-02-07T09:37:50.965Z,29.48
2019-02-07T09:41:12.495Z,29.45
2019-02-07T09:44:26.991Z,29.42
2019-02-07T09:47:45.288Z,29.39
2019-02-07T09:50:57.404Z,29.44
2019-02-07T09:54:19.359Z,29.34
2019-02-07T09:57:39.445Z,29.33
2019-02-07T10:01:01.709Z,29.29
2019-02-07T10:04:33.544Z,29.32
2019-02-07T10:07:54.907Z,29.24
2019-02-07T10:11:16.532Z,29.16
2019-02-07T10:14:27.243Z,29.13
2019-02-07T10:17:52.795Z,29.15
2019-02-07T10:21:03.931Z,29.11
2019-02-07T10:24:25.535Z,29.13
2019-02-07T10:27:54.968Z,29.10
2019-02-07T10:31:16.088Z,29.08
2019-02-07T10:34:27.311Z,29.05
2019-02-07T10:37:39.060Z,29.05
2019-02-07T10:40:54.253Z,28.98
2019-02-07T10:44:21.597Z,28.97
2019-02-07T10:47:42.915Z,28.91
2019-02-07T10:51:01.664Z,28.85
2019-02-07T10:54:25.435Z,28.79
2019-02-07T10:57:49.320Z,28.75
2019-02-07T11:01:10.941Z,28.76
2019-02-07T11:04:34.644Z,29.34
2019-02-07T11:07:50.513Z,29.72
2019-02-07T11:11:04.790Z,29.72
2019-02-07T11:14:32.522Z,29.73
2019-02-07T11:17:47.244Z,29.73
2019-02-07T11:21:03.702Z,29.76
2019-02-07T11:24:22.555Z,29.75
2019-02-07T11:27:47.320Z,29.75
2019-02-07T11:31:10.442Z,29.72
2019-02-07T11:34:33.019Z,29.72
2019-02-07T11:37:54.808Z,29.74
2019-02-07T11:41:17.968Z,29.81
2019-02-07T11:44:39.674Z,29.81
2019-02-07T11:48:01.101Z,29.80
2019-02-07T11:51:17.611Z,29.81
2019-02-07T11:54:43.227Z,29.77
2019-02-07T11:57:59.974Z,29.76
2019-02-07T12:01:32.003Z,29.81
2019-02-07T12:04:50.689Z,29.81
2019-02-07T12:08:22.556Z,29.81
2019-02-07T12:11:59.233Z,29.75
2019-02-07T12:15:39.884Z,29.71
2019-02-07T12:19:17.815Z,29.74
2019-02-07T12:22:30.932Z,29.63
2019-02-07T12:26:00.002Z,29.53
2019-02-07T12:29:21.735Z,29.58
2019-02-07T12:32:37.767Z,29.72
2019-02-07T12:36:13.900Z,29.79
2019-02-07T12:39:24.919Z,29.77
2019-02-07T12:42:37.607Z,29.70
2019-02-07T12:45:59.121Z,29.73
2019-02-07T12:49:29.315Z,29.72
2019-02-07T12:52:53.858Z,29.72
2019-02-07T12:56:24.815Z,29.72
2019-02-07T12:59:59.803Z,29.70
2019-02-07T13:03:28.753Z,29.70
2019-02-07T13:06:57.342Z,29.64
2019-02-07T13:10:20.959Z,29.67
2019-02-07T13:13:36.392Z,29.72
2019-02-07T13:17:01.321Z,29.69
2019-02-07T13:20:28.611Z,29.69
2019-02-07T13:23:49.837Z,29.70
2019-02-07T13:27:12.460Z,29.69
2019-02-07T13:30:32.005Z,29.66
2019-02-07T13:34:04.586Z,29.63
2019-02-07T13:37:21.421Z,29.54
2019-02-07T13:40:38.991Z,29.46
2019-02-07T13:43:55.702Z,29.43
2019-02-07T13:47:24.077Z,29.39
2019-02-07T13:50:45.800Z,29.38
2019-02-07T13:54:09.492Z,29.31
2019-02-07T13:57:33.147Z,29.30
2019-02-07T14:00:44.469Z,29.26
2019-02-07T14:04:19.471Z,29.24
2019-02-07T14:07:48.172Z,29.22
2019-02-07T14:11:16.734Z,29.21
2019-02-07T14:14:33.786Z,29.16
2019-02-07T14:18:03.330Z,29.09
2019-02-07T14:21:26.025Z,29.11
2019-02-07T14:24:39.102Z,29.10
2019-02-07T14:27:56.746Z,29.09
2019-02-07T14:31:09.882Z,29.08
2019-02-07T14:34:26.095Z,29.04
2019-02-07T14:37:51.749Z,29.04
2019-02-07T14:41:07.535Z,29.03
2019-02-07T14:44:33.870Z,29.05
2019-02-07T14:47:37.502Z,29.03
2019-02-07T14:50:42.219Z,29.03
2019-02-07T14:53:46.939Z,29.02
2019-02-07T14:56:50.665Z,29.03
2019-02-07T14:59:54.408Z,29.09
2019-02-07T15:02:58.058Z,29.12
2019-02-07T15:06:01.784Z,29.16
2019-02-07T15:09:12.281Z,29.26
2019-02-07T15:12:15.919Z,29.35
2019-02-07T15:15:20.436Z,29.31
2019-02-07T15:18:24.242Z,29.26
2019-02-07T15:21:28.871Z,29.26
2019-02-07T15:24:33.638Z,29.25
2019-02-07T15:27:37.337Z,29.23
2019-02-07T15:30:41.013Z,29.22
2019-02-07T15:33:45.776Z,29.19
2019-02-07T15:36:50.797Z,29.17
2019-02-07T15:39:54.395Z,29.18
2019-02-07T15:42:58.084Z,29.16
2019-02-07T15:46:01.792Z,29.15
2019-02-07T15:49:05.629Z,29.13
2019-02-07T15:52:09.231Z,29.12
2019-02-07T15:55:13.223Z,29.11
2019-02-07T15:58:18.930Z,29.10
2019-02-07T16:01:50.837Z,29.37
2019-02-07T16:04:57.179Z,29.68
2019-02-07T16:08:01.055Z,29.72
2019-02-07T16:11:04.650Z,29.79
2019-02-07T16:14:08.815Z,29.59
2019-02-07T16:17:12.535Z,29.53
2019-02-07T16:20:17.385Z,29.75
2019-02-07T16:23:21.373Z,29.93
2019-02-07T16:26:24.990Z,29.93
2019-02-07T16:29:28.935Z,29.94
2019-02-07T16:32:32.839Z,29.94
2019-02-07T16:35:38.203Z,29.97
2019-02-07T16:38:42.078Z,29.96
2019-02-07T16:41:46.253Z,30.01
2019-02-07T16:44:50.117Z,29.98
2019-02-07T16:47:53.920Z,29.98
2019-02-07T16:51:00.378Z,29.99
2019-02-07T16:54:03.100Z,29.98
2019-02-07T16:57:06.757Z,29.99
2019-02-07T17:00:16.096Z,29.98
2019-02-07T17:03:19.744Z,30.00
2019-02-07T17:06:23.391Z,30.02
2019-02-07T17:09:30.549Z,30.04
2019-02-07T17:12:34.117Z,30.04
2019-02-07T17:15:37.811Z,30.09
2019-02-07T17:18:41.610Z,30.05
2019-02-07T17:21:45.231Z,30.04
2019-02-07T17:24:48.945Z,30.04
2019-02-07T17:27:52.651Z,30.05
2019-02-07T17:30:56.322Z,30.05
2019-02-07T17:34:00.889Z,30.10
2019-02-07T17:37:04.569Z,30.10
2019-02-07T17:40:11.590Z,30.09
2019-02-07T17:43:17.317Z,30.10
2019-02-07T17:46:21.117Z,30.10
2019-02-07T17:49:24.735Z,30.08
2019-02-07T17:52:29.857Z,30.11
2019-02-07T17:55:33.475Z,30.08
2019-02-07T17:58:37.086Z,30.05
2019-02-07T18:01:40.768Z,30.05
2019-02-07T18:04:44.474Z,30.13
2019-02-07T18:07:48.189Z,30.11
2019-02-07T18:10:51.889Z,30.10
2019-02-07T18:13:55.650Z,30.08
2019-02-07T18:16:59.287Z,30.12
2019-02-07T18:20:04.392Z,30.15
2019-02-07T18:23:07.940Z,30.13
2019-02-07T18:26:11.763Z,30.13
2019-02-07T18:29:15.367Z,30.16
2019-02-07T18:32:19.051Z,30.17
2019-02-07T18:35:22.834Z,30.23
2019-02-07T18:38:26.470Z,30.18
2019-02-07T18:41:30.175Z,30.04
2019-02-07T18:44:33.875Z,30.01
2019-02-07T18:47:38.628Z,29.99
2019-02-07T18:50:42.315Z,30.29
2019-02-07T18:53:46.033Z,30.31
2019-02-07T18:56:49.760Z,30.29
2019-02-07T18:59:53.450Z,30.29
2019-02-07T19:02:57.151Z,30.27
2019-02-07T19:06:00.857Z,30.27
2019-02-07T19:09:08.295Z,30.28
2019-02-07T19:12:11.946Z,30.25
2019-02-07T19:15:24.244Z,30.23
2019-02-07T19:18:27.961Z,30.16
2019-02-07T19:21:31.495Z,30.15
2019-02-07T19:24:35.188Z,30.08
2019-02-07T19:27:38.797Z,30.03
2019-02-07T19:30:42.372Z,30.04
2019-02-07T19:33:46.065Z,29.98
2019-02-07T19:36:49.802Z,29.99
2019-02-07T19:39:55.362Z,30.02
2019-02-07T19:42:58.948Z,30.03
2019-02-07T19:46:02.571Z,30.00
2019-02-07T19:49:06.261Z,30.09
2019-02-07T19:52:10.039Z,30.09
2019-02-07T19:55:15.616Z,30.12
2019-02-07T19:58:19.200Z,30.10
2019-02-07T20:01:23.967Z,30.08
2019-02-07T20:04:28.662Z,30.06
2019-02-07T20:07:32.368Z,30.08
2019-02-07T20:10:36.080Z,30.10
2019-02-07T20:13:39.790Z,30.14
2019-02-07T20:16:44.533Z,30.11
2019-02-07T20:19:48.098Z,30.12
2019-02-07T20:22:51.728Z,30.14
2019-02-07T20:25:55.588Z,30.10
2019-02-07T20:28:59.395Z,30.09
2019-02-07T20:32:03.255Z,30.10
2019-02-07T20:35:07.246Z,30.09
2019-02-07T20:38:11.086Z,30.10
2019-02-07T20:41:14.792Z,30.10
2019-02-07T20:44:18.500Z,30.03
2019-02-07T20:47:22.204Z,30.06
2019-02-07T20:50:26.987Z,30.10
2019-02-07T20:53:32.711Z,30.06
2019-02-07T20:56:36.412Z,30.01
2019-02-07T20:59:40.080Z,29.94
2019-02-07T21:02:43.822Z,29.98
2019-02-07T21:05:47.436Z,29.98
2019-02-07T21:08:52.033Z,30.03
2019-02-07T21:11:55.744Z,30.02
2019-02-07T21:14:59.439Z,30.03
2019-02-07T21:18:03.168Z,30.09
2019-02-07T21:21:06.856Z,30.04
2019-02-07T21:24:10.615Z,30.03
2019-02-07T21:27:16.331Z,30.01
2019-02-07T21:30:25.338Z,29.97
2019-02-07T21:33:28.970Z,29.96
2019-02-07T21:36:32.555Z,29.96
2019-02-07T21:39:36.266Z,29.96
2019-02-07T21:42:40.147Z,29.94
2019-02-07T21:45:43.833Z,29.93
2019-02-07T21:48:47.859Z,29.91
2019-02-07T21:51:52.532Z,29.93
2019-02-07T21:54:56.140Z,29.91
2019-02-07T21:57:59.782Z,29.90
2019-02-07T22:01:03.538Z,29.91
2019-02-07T22:04:08.157Z,29.92
2019-02-07T22:07:11.791Z,29.89
2019-02-07T22:10:16.438Z,29.89
2019-02-07T22:13:20.106Z,29.85
2019-02-07T22:16:23.718Z,29.84
2019-02-07T22:19:27.304Z,29.86
2019-02-07T22:22:30.898Z,29.83
2019-02-07T22:25:34.586Z,29.83
2019-02-07T22:28:38.149Z,29.80
2019-02-07T22:31:41.928Z,29.81
2019-02-07T22:34:45.478Z,29.83
2019-02-07T22:37:50.231Z,29.81
2019-02-07T22:40:53.868Z,29.80
2019-02-07T22:43:57.518Z,29.80
2019-02-07T22:47:01.278Z,29.77
2019-02-07T22:50:08.147Z,29.77
2019-02-07T22:53:11.800Z,29.79
2019-02-07T22:56:15.469Z,29.78
2019-02-07T22:59:19.065Z,29.79
2019-02-07T23:02:22.799Z,29.77
2019-02-07T23:05:26.576Z,29.79
2019-02-07T23:08:30.122Z,29.76
2019-02-07T23:11:33.803Z,29.75
2019-02-07T23:14:37.406Z,29.77
2019-02-07T23:17:41.011Z,29.76
2019-02-07T23:20:44.705Z,29.74
2019-02-07T23:23:48.284Z,29.75
2019-02-07T23:26:51.863Z,29.72
2019-02-07T23:29:55.595Z,29.72
2019-02-07T23:32:59.256Z,29.78
2019-02-07T23:36:02.981Z,29.74
2019-02-07T23:39:09.061Z,29.71
2019-02-07T23:42:13.679Z,29.73
2019-02-07T23:45:17.360Z,29.73
2019-02-07T23:48:21.232Z,29.70
2019-02-07T23:51:24.823Z,29.70
2019-02-07T23:54:28.471Z,29.73
2019-02-07T23:57:32.149Z,29.67
